Time;durP1;ratioP1;P1;durP2;ratioP2;P2;SDS_P1;SDS_P2;PMS_P1;PMS_P2;Temp;Humidity;BMP_temperature;BMP_pressure;BME280_temperature;BME280_humidity;BME280_pressure;Samples;Min_cycle;Max_cycle;Signal;HPM_P1;HPM_P2
2020/12/19 00:00:57;;;;;;;13.23;3.90;;;;;;;13.55;76.90;99051.94;5048948;28;20061;-81
2020/12/19 00:03:22;;;;;;;12.50;3.35;;;;;;;13.23;77.99;99055.97;5048541;28;20360;-82
2020/12/19 00:05:48;;;;;;;14.40;3.90;;;;;;;13.42;77.81;99050.53;5050444;28;20482;-81
2020/12/19 00:08:13;;;;;;;13.00;4.03;;;;;;;13.44;77.83;99048.56;5050031;28;20017;-81
2020/12/19 00:10:38;;;;;;;13.88;3.30;;;;;;;12.96;78.83;99049.03;5049026;28;20290;-81
2020/12/19 00:13:04;;;;;;;13.68;3.90;;;;;;;13.17;78.92;99040.78;5037555;28;20021;-81
2020/12/19 00:15:29;;;;;;;13.63;4.50;;;;;;;13.33;78.19;99035.66;5031681;28;20061;-81
2020/12/19 00:17:55;;;;;;;10.65;3.65;;;;;;;13.45;77.88;99030.94;5031692;28;20585;-81
2020/12/19 00:20:21;;;;;;;11.02;3.10;;;;;;;13.25;78.59;99043.47;5031844;28;20026;-81
2020/12/19 00:22:47;;;;;;;10.45;3.53;;;;;;;13.27;78.29;99033.63;5032025;28;20434;-81
2020/12/19 00:25:12;;;;;;;14.70;3.50;;;;;;;13.23;77.99;99029.59;5031873;28;20101;-81
2020/12/19 00:27:38;;;;;;;13.05;2.97;;;;;;;13.26;78.66;99039.84;5031616;28;20030;-81
2020/12/19 00:30:05;;;;;;;13.55;3.03;;;;;;;13.16;78.58;99028.59;5049788;28;20037;-81
2020/12/19 00:32:31;;;;;;;8.75;3.15;;;;;;;13.00;78.90;99024.84;5043284;28;20032;-81
2020/12/19 00:34:56;;;;;;;8.30;3.08;;;;;;;12.98;79.27;99012.81;5044185;28;20033;-81
2020/12/19 00:37:23;;;;;;;10.20;3.28;;;;;;;13.10;79.12;99035.31;5049959;28;20028;-81
2020/12/19 00:39:49;;;;;;;9.77;4.65;;;;;;;13.21;78.67;99027.16;5051061;28;20022;-81
2020/12/19 00:42:15;;;;;;;16.25;4.10;;;;;;;13.26;78.58;99013.50;5034804;28;20033;-81
2020/12/19 00:44:40;;;;;;;16.30;3.83;;;;;;;13.30;78.40;99028.03;5031704;28;20032;-81
2020/12/19 00:47:05;;;;;;;11.10;3.30;;;;;;;13.54;77.58;99021.25;5046513;28;20025;-81
2020/12/19 00:49:31;;;;;;;10.35;3.53;;;;;;;13.35;77.79;99004.69;5050917;28;20029;-82
2020/12/19 00:51:56;;;;;;;10.43;3.47;;;;;;;13.27;78.54;99005.44;5055852;23;20489;-89
2020/12/19 00:54:21;;;;;;;8.00;3.30;;;;;;;13.40;77.93;99005.03;5011609;28;20033;-89
2020/12/19 00:56:47;;;;;;;8.73;2.92;;;;;;;13.53;77.74;99009.06;5011833;28;20041;-89
2020/12/19 00:59:12;;;;;;;9.27;3.47;;;;;;;13.33;78.40;99006.66;4994363;28;20384;-88
2020/12/19 01:01:37;;;;;;;13.07;3.17;;;;;;;13.49;77.79;99001.47;5006016;28;20489;-89
2020/12/19 01:04:03;;;;;;;13.98;3.80;;;;;;;13.32;78.38;99001.53;4974113;28;20595;-89
2020/12/19 01:06:28;;;;;;;9.65;2.60;;;;;;;13.27;78.13;98988.81;4974863;28;20018;-89
2020/12/19 01:08:59;;;;;;;11.75;3.50;;;;;;;13.25;78.20;98996.88;4974489;28;20030;-89
2020/12/19 01:11:26;;;;;;;9.30;3.40;;;;;;;13.35;78.15;98985.38;4955086;28;20027;-89
2020/12/19 01:13:51;;;;;;;12.60;3.10;;;;;;;13.27;78.53;98981.72;4955291;28;20381;-89
2020/12/19 01:16:22;;;;;;;13.27;3.80;;;;;;;13.24;78.68;98989.09;4966845;28;20034;-89
2020/12/19 01:18:49;;;;;;;11.57;2.93;;;;;;;13.43;78.07;98981.00;4991690;28;20022;-89
2020/12/19 01:21:18;;;;;;;13.65;4.13;;;;;;;13.32;77.69;98975.19;4975880;28;20384;-89
2020/12/19 01:23:44;;;;;;;7.63;2.88;;;;;;;13.27;78.35;98979.09;4995717;28;20023;-88
2020/12/19 01:26:10;;;;;;;10.90;3.20;;;;;;;13.43;77.99;98981.00;4995715;28;20030;-87
2020/12/19 01:28:35;;;;;;;12.50;3.03;;;;;;;13.39;77.62;98963.00;4995102;28;20034;-87
2020/12/19 01:31:02;;;;;;;7.43;2.72;;;;;;;13.36;77.63;98964.16;4983474;28;20533;-87
2020/12/19 01:33:27;;;;;;;6.57;2.35;;;;;;;13.07;78.74;98952.13;4963123;28;20113;-87
2020/12/19 01:35:53;;;;;;;9.98;2.58;;;;;;;13.14;78.32;98947.03;4995455;28;20022;-88
2020/12/19 01:38:18;;;;;;;7.15;2.30;;;;;;;13.47;77.48;98940.16;4978011;28;20560;-88
2020/12/19 01:40:50;;;;;;;13.00;3.40;;;;;;;13.06;78.38;98947.81;4978038;28;20384;-87
2020/12/19 01:43:16;;;;;;;6.15;2.33;;;;;;;13.11;78.59;98936.81;4977812;28;20432;-87
2020/12/19 01:45:41;;;;;;;8.10;2.92;;;;;;;13.28;78.06;98943.81;4993486;28;20034;-87
2020/12/19 01:48:15;;;;;;;4.95;2.40;;;;;;;13.20;78.71;98930.59;4995225;28;20022;-87
2020/12/19 01:50:41;;;;;;;6.30;2.30;;;;;;;13.33;77.85;98929.38;4968381;28;20027;-87
2020/12/19 01:53:06;;;;;;;8.32;2.13;;;;;;;13.49;77.52;98929.47;4958822;28;20086;-88
2020/12/19 01:55:32;;;;;;;5.00;2.30;;;;;;;12.94;79.18;98945.63;4958051;28;20038;-87
2020/12/19 01:57:58;;;;;;;5.28;1.92;;;;;;;13.04;78.90;98931.34;4975792;28;20513;-87
2020/12/19 02:00:23;;;;;;;6.70;2.70;;;;;;;12.88;79.40;98926.81;4964863;28;20053;-87
2020/12/19 02:02:48;;;;;;;9.60;2.80;;;;;;;13.09;78.79;98921.16;4977189;28;20054;-87
2020/12/19 02:05:14;;;;;;;7.38;2.03;;;;;;;13.20;78.09;98940.31;4977471;28;20034;-88
2020/12/19 02:07:39;;;;;;;6.55;1.98;;;;;;;13.21;78.58;98926.16;4994763;28;20023;-88
2020/12/19 02:10:05;;;;;;;9.27;2.35;;;;;;;13.25;78.28;98930.13;4994565;28;20038;-87
2020/12/19 02:12:30;;;;;;;13.27;3.13;;;;;;;13.28;77.85;98932.47;4994095;28;20026;-87
2020/12/19 02:14:58;;;;;;;7.68;1.95;;;;;;;13.28;77.92;98912.19;4974826;28;20069;-88
2020/12/19 02:17:24;;;;;;;8.98;1.98;;;;;;;13.49;77.25;98911.00;4975120;28;20035;-87
2020/12/19 02:19:49;;;;;;;6.95;1.73;;;;;;;13.52;76.99;98913.28;4957869;28;20520;-87
2020/12/19 02:22:15;;;;;;;7.55;1.83;;;;;;;13.51;77.08;98911.66;4986929;28;20106;-88
2020/12/19 02:24:40;;;;;;;9.85;2.33;;;;;;;13.22;77.81;98915.44;4977189;28;20077;-87
2020/12/19 02:27:05;;;;;;;5.45;1.67;;;;;;;13.46;76.80;98904.22;4994476;28;20300;-87
2020/12/19 02:29:32;;;;;;;3.47;1.27;;;;;;;13.27;77.39;98912.38;4993579;28;20467;-88
2020/12/19 02:32:00;;;;;;;9.00;1.60;;;;;;;13.29;77.56;98905.97;4976124;28;20081;-87
2020/12/19 02:34:27;;;;;;;5.47;1.38;;;;;;;13.49;77.25;98897.81;4994277;28;20030;-88
2020/12/19 02:36:52;;;;;;;2.97;1.35;;;;;;;13.40;77.56;98877.66;4976844;28;20504;-87
2020/12/19 02:39:18;;;;;;;5.47;1.40;;;;;;;13.67;76.82;98895.88;4993997;28;20058;-87
2020/12/19 02:41:45;;;;;;;9.63;1.90;;;;;;;13.54;77.02;98895.50;4994148;28;20022;-87
2020/12/19 02:44:13;;;;;;;5.03;1.90;;;;;;;13.36;77.22;98890.34;4994180;28;20507;-87
2020/12/19 02:46:38;;;;;;;10.48;1.88;;;;;;;13.12;78.23;98891.03;4992499;28;20070;-87
2020/12/19 02:49:04;;;;;;;7.60;2.42;;;;;;;13.40;77.28;98875.84;4976635;28;20117;-87
2020/12/19 02:51:30;;;;;;;9.90;2.00;;;;;;;13.46;77.06;98871.75;4976950;28;20013;-88
2020/12/19 02:53:55;;;;;;;6.97;2.03;;;;;;;13.32;77.12;98878.47;4993979;28;20026;-88
2020/12/19 02:56:20;;;;;;;4.97;1.83;;;;;;;13.13;77.79;98882.16;4976537;28;20512;-87
2020/12/19 02:58:46;;;;;;;11.85;3.55;;;;;;;13.01;78.71;98886.03;4994058;28;20370;-87
2020/12/19 03:01:11;;;;;;;10.93;3.00;;;;;;;13.25;78.09;98875.63;4981863;28;20034;-87
2020/12/19 03:03:36;;;;;;;13.80;3.00;;;;;;;13.34;77.68;98886.22;4974497;28;20126;-88
2020/12/19 03:06:02;;;;;;;10.40;2.40;;;;;;;13.37;77.85;98883.25;4974243;28;20114;-87
2020/12/19 03:08:28;;;;;;;12.35;2.67;;;;;;;13.26;78.01;98900.16;4956961;28;20023;-87
2020/12/19 03:10:54;;;;;;;21.95;4.15;;;;;;;13.62;77.50;98913.16;4956984;28;20099;-87
2020/12/19 03:13:19;;;;;;;11.85;2.72;;;;;;;13.15;79.16;98922.34;4974122;28;20018;-88
2020/12/19 03:15:44;;;;;;;10.82;2.10;;;;;;;13.17;76.86;98936.22;4966687;28;20049;-87
2020/12/19 03:18:10;;;;;;;8.13;1.30;;;;;;;12.89;74.59;98911.81;4993576;28;20026;-87
2020/12/19 03:20:35;;;;;;;4.10;0.98;;;;;;;13.20;73.51;98906.06;4993046;28;20042;-87
2020/12/19 03:23:00;;;;;;;3.35;1.00;;;;;;;13.37;73.39;98899.91;4975921;28;20038;-87
2020/12/19 03:25:26;;;;;;;8.50;1.40;;;;;;;13.41;73.06;98916.25;4992687;28;20038;-87
2020/12/19 03:27:53;;;;;;;6.53;1.30;;;;;;;13.26;73.80;98918.59;4976080;28;20376;-88
2020/12/19 03:30:18;;;;;;;5.50;1.23;;;;;;;13.34;73.81;98905.50;4972597;28;20420;-87
2020/12/19 03:32:43;;;;;;;8.30;1.25;;;;;;;13.36;73.26;98892.16;4975757;28;20077;-87
2020/12/19 03:35:09;;;;;;;10.20;1.65;;;;;;;13.42;73.13;98888.88;4975648;28;20034;-87
2020/12/19 03:37:34;;;;;;;8.85;1.95;;;;;;;13.15;74.01;98897.78;4975660;28;20089;-87
2020/12/19 03:40:03;;;;;;;9.77;1.50;;;;;;;13.34;73.65;98900.22;4993148;28;20026;-87
2020/12/19 03:42:29;;;;;;;14.02;1.83;;;;;;;13.17;74.38;98890.56;4975601;28;20388;-87
2020/12/19 03:44:54;;;;;;;15.23;2.35;;;;;;;13.15;74.32;98892.53;4991015;28;20069;-87
2020/12/19 03:47:19;;;;;;;11.02;1.38;;;;;;;13.18;74.75;98902.75;4993147;28;20030;-87
2020/12/19 03:49:45;;;;;;;15.00;1.73;;;;;;;13.35;74.00;98901.03;4993014;28;20022;-87
2020/12/19 03:52:10;;;;;;;16.63;2.83;;;;;;;13.03;75.20;98884.91;4968918;28;20027;-88
2020/12/19 03:54:35;;;;;;;8.48;1.77;;;;;;;13.27;74.33;98878.09;4973496;28;20269;-87
2020/12/19 03:57:01;;;;;;;12.55;2.70;;;;;;;13.25;74.28;98885.31;4973294;28;20034;-87
2020/12/19 03:59:26;;;;;;;11.50;3.55;;;;;;;13.31;73.85;98874.19;4956177;28;20027;-87
2020/12/19 04:01:51;;;;;;;13.13;1.73;;;;;;;13.43;73.65;98883.47;4968523;28;20045;-88
2020/12/19 04:04:17;;;;;;;12.73;1.90;;;;;;;13.37;73.34;98870.91;4991580;28;20022;-87
2020/12/19 04:06:42;;;;;;;10.82;1.58;;;;;;;13.38;74.35;98885.72;4992327;28;20026;-87
2020/12/19 04:09:07;;;;;;;10.15;2.15;;;;;;;13.27;74.46;98899.19;4975364;28;20113;-87
2020/12/19 04:11:33;;;;;;;13.73;2.05;;;;;;;13.30;74.53;98898.88;4975215;28;20028;-88
2020/12/19 04:13:58;;;;;;;11.98;2.58;;;;;;;13.31;74.72;98890.00;4992473;28;20026;-87
2020/12/19 04:16:23;;;;;;;19.02;2.65;;;;;;;13.33;74.55;98898.59;4960083;28;20150;-87
2020/12/19 04:18:49;;;;;;;15.10;2.38;;;;;;;13.25;74.37;98882.69;4956056;28;20473;-87
2020/12/19 04:21:14;;;;;;;18.95;2.30;;;;;;;13.43;74.08;98887.91;4973098;28;20401;-87
2020/12/19 04:23:40;;;;;;;14.13;1.77;;;;;;;13.45;74.22;98888.56;4973246;28;20390;-87
2020/12/19 04:26:05;;;;;;;20.70;2.20;;;;;;;13.45;73.59;98884.13;4955711;28;20023;-88
2020/12/19 04:28:31;;;;;;;11.20;1.67;;;;;;;13.54;73.61;98892.06;4972992;28;20073;-88
2020/12/19 04:30:56;;;;;;;13.15;2.60;;;;;;;13.32;74.62;98896.91;4966907;28;20046;-87
2020/12/19 04:33:24;;;;;;;13.52;2.15;;;;;;;13.62;73.48;98886.78;4974947;28;20112;-87
2020/12/19 04:35:49;;;;;;;15.23;2.38;;;;;;;13.65;73.72;98897.03;4992282;28;20045;-87
2020/12/19 04:38:15;;;;;;;12.07;2.10;;;;;;;13.72;73.15;98900.66;4992422;28;20112;-87
2020/12/19 04:40:40;;;;;;;14.88;2.83;;;;;;;13.60;73.64;98900.13;4992268;28;20393;-87
2020/12/19 04:43:15;;;;;;;18.50;3.17;;;;;;;13.44;74.13;98908.00;4974939;28;20076;-87
2020/12/19 04:45:42;;;;;;;21.90;3.08;;;;;;;13.40;73.60;98904.84;4990678;28;20109;-87
2020/12/19 04:48:07;;;;;;;19.17;2.92;;;;;;;13.53;73.07;98898.31;4974793;28;20026;-87
2020/12/19 04:50:37;;;;;;;19.10;2.60;;;;;;;13.58;73.16;98906.56;4991992;28;20028;-87
2020/12/19 04:53:12;;;;;;;15.45;2.03;;;;;;;13.53;73.96;98900.97;4956240;28;20121;-87
2020/12/19 04:55:37;;;;;;;21.08;3.75;;;;;;;13.45;73.91;98901.75;4957015;28;20034;-88
2020/12/19 04:58:02;;;;;;;16.25;3.25;;;;;;;13.53;73.63;98900.97;4976810;28;20158;-87
2020/12/19 05:00:28;;;;;;;26.48;3.80;;;;;;;13.47;74.04;98905.88;4976779;28;20473;-87
2020/12/19 05:02:53;;;;;;;26.38;3.75;;;;;;;13.33;74.48;98914.41;4976596;28;20086;-87
2020/12/19 05:05:18;;;;;;;21.33;3.10;;;;;;;13.46;74.20;98911.31;4976583;28;20540;-87
2020/12/19 05:07:45;;;;;;;23.27;4.13;;;;;;;13.28;74.19;98924.53;4977468;28;20027;-87
2020/12/19 05:10:10;;;;;;;22.40;3.05;;;;;;;13.48;74.08;98918.06;4976415;28;20543;-88
2020/12/19 05:12:35;;;;;;;19.73;3.28;;;;;;;13.53;73.57;98935.25;4976274;28;20031;-87
2020/12/19 05:15:01;;;;;;;24.50;2.70;;;;;;;13.55;73.31;98933.28;4976209;28;20449;-87
2020/12/19 05:17:27;;;;;;;23.67;3.58;;;;;;;13.61;72.89;98935.25;4976523;28;20031;-87
2020/12/19 05:19:53;;;;;;;25.85;3.20;;;;;;;13.62;73.00;98931.63;4976403;28;20022;-87
2020/12/19 05:22:19;;;;;;;17.20;3.40;;;;;;;13.61;73.44;98932.63;4977573;28;20022;-88
2020/12/19 05:24:44;;;;;;;19.42;3.17;;;;;;;13.34;73.34;98931.84;4976374;28;20429;-87
2020/12/19 05:27:10;;;;;;;29.60;3.25;;;;;;;13.45;73.36;98928.94;4976588;28;20058;-88
2020/12/19 05:29:36;;;;;;;17.13;3.10;;;;;;;13.48;72.52;98933.88;4967572;28;20041;-87
2020/12/19 05:32:02;;;;;;;23.48;2.83;;;;;;;13.52;72.86;98928.31;4995446;28;20018;-87
2020/12/19 05:34:28;;;;;;;19.30;2.95;;;;;;;13.47;72.66;98928.78;4995508;28;20081;-88
2020/12/19 05:36:55;;;;;;;19.75;3.08;;;;;;;13.34;73.08;98929.22;4989610;28;20413;-87
2020/12/19 05:39:20;;;;;;;22.23;3.70;;;;;;;13.50;72.30;98931.09;4976015;28;20114;-88
2020/12/19 05:41:47;;;;;;;29.80;3.60;;;;;;;13.48;71.52;98928.59;4958383;28;20464;-87
2020/12/19 05:44:20;;;;;;;26.08;3.35;;;;;;;13.36;71.86;98923.78;4975840;28;20026;-87
2020/12/19 05:46:45;;;;;;;20.40;3.25;;;;;;;13.36;72.55;98932.50;4975811;28;20027;-87
2020/12/19 05:49:11;;;;;;;34.83;4.22;;;;;;;13.54;71.88;98921.06;4958602;28;20042;-87
2020/12/19 05:51:39;;;;;;;20.05;3.75;;;;;;;13.47;72.36;98932.25;4966261;28;20034;-87
2020/12/19 05:54:14;;;;;;;26.23;3.30;;;;;;;13.37;72.57;98925.44;4958459;28;20081;-87
2020/12/19 05:56:42;;;;;;;19.25;3.17;;;;;;;13.40;71.71;98914.56;4958300;28;20069;-87
2020/12/19 05:59:20;;;;;;;20.45;3.33;;;;;;;13.17;72.26;98938.00;4958301;28;20037;-87
2020/12/19 06:01:47;;;;;;;26.55;3.65;;;;;;;13.05;73.26;98940.91;4975593;28;20106;-87
2020/12/19 06:04:14;;;;;;;29.13;3.70;;;;;;;13.26;72.31;98939.69;4958052;28;20027;-87
2020/12/19 06:06:42;;;;;;;20.60;3.00;;;;;;;13.29;72.28;98939.41;4982820;28;20030;-87
2020/12/19 06:09:09;;;;;;;25.02;3.35;;;;;;;13.40;71.68;98933.03;4977415;28;20038;-87
2020/12/19 06:11:48;;;;;;;25.13;3.70;;;;;;;13.34;71.58;98941.56;4994819;28;20101;-88
2020/12/19 06:14:18;;;;;;;31.08;3.83;;;;;;;13.05;71.80;98943.56;4994838;28;20026;-87
2020/12/19 06:16:45;;;;;;;31.25;4.63;;;;;;;13.31;71.77;98936.59;4994775;28;20385;-87
2020/12/19 06:19:20;;;;;;;25.05;3.70;;;;;;;13.27;70.90;98939.53;4968080;28;20035;-87
2020/12/19 06:21:54;;;;;;;26.55;3.70;;;;;;;13.23;71.81;98934.72;4958178;28;20027;-87
2020/12/19 06:24:41;;;;;;;26.25;3.60;;;;;;;13.23;72.34;98946.13;4975292;28;20027;-87
2020/12/19 06:27:18;;;;;;;33.47;4.80;;;;;;;13.21;72.14;98952.50;4975173;28;20445;-87
2020/12/19 06:29:44;;;;;;;29.23;5.60;;;;;;;13.17;72.57;98936.22;4957779;28;20366;-87
2020/12/19 06:32:18;;;;;;;23.50;3.28;;;;;;;13.14;72.15;98948.88;4974751;28;20027;-87
2020/12/19 06:34:43;;;;;;;14.82;2.42;;;;;;;13.18;72.02;98942.28;4974816;28;20030;-87
2020/12/19 06:37:19;;;;;;;33.60;3.50;;;;;;;13.27;71.83;98946.63;4958588;28;20038;-87
2020/12/19 06:40:17;;;;;;;24.90;3.65;;;;;;;13.09;71.49;98949.31;4970763;28;20030;-87
2020/12/19 06:42:44;;;;;;;15.82;2.40;;;;;;;12.95;72.05;98947.25;4985078;28;20042;-87
2020/12/19 06:45:21;;;;;;;19.17;2.97;;;;;;;12.99;71.78;98954.69;4975027;28;20038;-87
2020/12/19 06:47:47;;;;;;;30.58;4.80;;;;;;;13.02;71.51;98950.94;4976733;28;20026;-87
2020/12/19 06:50:12;;;;;;;18.75;3.35;;;;;;;12.82;71.99;98947.69;4975535;28;20030;-88
2020/12/19 06:52:38;;;;;;;19.75;2.92;;;;;;;12.84;72.18;98949.16;4974823;28;20492;-88
2020/12/19 06:55:25;;;;;;;25.55;3.58;;;;;;;12.83;72.07;98965.94;4976963;28;20027;-87
2020/12/19 06:57:52;;;;;;;17.55;3.35;;;;;;;12.85;71.04;98958.72;4976521;28;20026;-88
2020/12/19 07:00:23;;;;;;;14.30;2.15;;;;;;;12.81;70.72;98972.34;4994042;28;20076;-88
2020/12/19 07:02:49;;;;;;;15.43;2.53;;;;;;;12.82;71.01;98968.75;4976238;28;20062;-87
2020/12/19 07:05:22;;;;;;;16.23;3.05;;;;;;;12.63;71.16;98969.75;4974713;28;20018;-87
2020/12/19 07:07:48;;;;;;;17.15;3.03;;;;;;;12.78;70.46;98980.59;4976155;28;20023;-87
2020/12/19 07:10:14;;;;;;;17.35;2.70;;;;;;;12.59;70.64;98979.75;4976407;28;20031;-87
2020/12/19 07:12:42;;;;;;;11.48;2.15;;;;;;;12.49;70.69;98976.38;4976171;28;20380;-87
2020/12/19 07:15:31;;;;;;;11.48;2.95;;;;;;;12.52;70.80;98976.09;4976128;28;20173;-87
2020/12/19 07:17:57;;;;;;;16.45;2.28;;;;;;;12.27;71.17;98981.13;4973593;28;20538;-87
2020/12/19 07:20:23;;;;;;;15.32;1.50;;;;;;;12.20;71.36;98995.84;4973276;28;20025;-87
2020/12/19 07:22:51;;;;;;;15.25;3.78;;;;;;;12.15;71.28;98986.78;4956455;28;20031;-87
2020/12/19 07:25:18;;;;;;;11.32;1.48;;;;;;;12.06;72.02;98991.09;4956727;28;20098;-88
2020/12/19 07:27:43;;;;;;;9.18;1.85;;;;;;;12.10;71.18;98993.31;4956641;28;20429;-88
2020/12/19 07:30:08;;;;;;;6.70;1.17;;;;;;;12.10;71.02;98992.47;4956546;28;20189;-88
2020/12/19 07:32:34;;;;;;;8.88;1.08;;;;;;;12.09;71.38;99023.22;4956596;28;20030;-88
2020/12/19 07:34:59;;;;;;;13.68;1.95;;;;;;;12.09;71.26;99019.75;4956434;28;20129;-88
2020/12/19 07:37:25;;;;;;;12.60;1.30;;;;;;;11.95;71.52;99023.72;4990653;28;20034;-88
2020/12/19 07:40:06;;;;;;;12.20;1.45;;;;;;;11.99;71.52;99032.16;4975841;28;20101;-87
2020/12/19 07:42:31;;;;;;;6.32;1.77;;;;;;;11.83;71.53;99032.75;4993131;28;20026;-88
2020/12/19 07:44:56;;;;;;;14.27;1.67;;;;;;;11.75;72.52;99038.75;4975705;28;20049;-88
2020/12/19 07:47:22;;;;;;;15.13;1.60;;;;;;;11.89;72.21;99042.72;4975022;28;20117;-88
2020/12/19 07:49:49;;;;;;;7.55;1.45;;;;;;;11.99;72.03;99043.50;4992992;28;20026;-88
2020/12/19 07:52:19;;;;;;;16.17;1.75;;;;;;;11.92;72.05;99046.84;4975279;28;20548;-87
2020/12/19 07:54:52;;;;;;;14.02;2.00;;;;;;;11.77;72.49;99047.31;4978253;28;20045;-88
2020/12/19 07:57:17;;;;;;;14.90;1.92;;;;;;;11.75;72.85;99054.50;4992701;28;20076;-88
2020/12/19 07:59:43;;;;;;;10.57;1.25;;;;;;;11.88;72.02;99038.38;4992878;28;20056;-88
2020/12/19 08:02:11;;;;;;;13.13;1.77;;;;;;;11.78;72.86;99051.56;4992822;28;20031;-88
2020/12/19 08:04:36;;;;;;;17.33;2.17;;;;;;;11.76;72.63;99045.63;4993005;28;20469;-88
2020/12/19 08:07:02;;;;;;;15.02;3.55;;;;;;;11.69;72.65;99055.09;4990974;28;20037;-87
2020/12/19 08:09:28;;;;;;;12.75;2.35;;;;;;;11.73;72.99;99056.47;4974711;28;20033;-88
2020/12/19 08:11:59;;;;;;;19.67;1.90;;;;;;;11.71;72.86;99059.22;4992003;28;20105;-88
2020/12/19 08:14:25;;;;;;;19.05;1.88;;;;;;;11.61;72.75;99066.31;4981467;28;20114;-88
2020/12/19 08:16:51;;;;;;;17.10;1.75;;;;;;;11.74;73.01;99068.63;4965832;28;20396;-88
2020/12/19 08:19:38;;;;;;;18.83;3.25;;;;;;;11.87;72.84;99073.56;4955773;28;20019;-88
2020/12/19 08:22:05;;;;;;;17.55;2.40;;;;;;;11.69;73.26;99078.75;4977829;28;20036;-88
2020/12/19 08:24:31;;;;;;;16.48;2.15;;;;;;;11.83;72.61;99080.91;4966473;28;20050;-88
2020/12/19 08:27:24;;;;;;;28.65;2.55;;;;;;;11.81;72.90;99079.38;4975028;28;20077;-89
2020/12/19 08:30:04;;;;;;;17.83;2.50;;;;;;;11.83;72.72;99083.53;4973260;28;20033;-89
2020/12/19 08:32:30;;;;;;;17.83;2.03;;;;;;;11.62;73.65;99093.44;4988953;28;20038;-88
2020/12/19 08:34:56;;;;;;;17.17;3.22;;;;;;;11.66;73.43;99076.41;4963658;28;20509;-88
2020/12/19 08:37:21;;;;;;;17.58;2.20;;;;;;;11.86;73.21;99088.50;4985521;28;20113;-88
2020/12/19 08:40:31;;;;;;;23.05;2.55;;;;;;;11.87;73.39;99091.97;5001358;28;20029;-88
2020/12/19 08:42:56;;;;;;;20.50;2.90;;;;;;;11.97;73.63;99090.16;4954076;28;20049;-89
2020/12/19 08:45:26;;;;;;;27.70;5.00;;;;;;;11.92;73.10;99094.19;4964729;28;20401;-88
2020/12/19 08:47:54;;;;;;;22.83;2.47;;;;;;;12.15;72.86;99092.84;4964693;28;20512;-89
2020/12/19 08:50:28;;;;;;;24.42;3.17;;;;;;;12.47;72.39;99091.53;4986092;28;20037;-89
2020/12/19 08:53:01;;;;;;;23.25;3.05;;;;;;;12.51;72.29;99098.16;4955769;28;20033;-88
2020/12/19 08:55:26;;;;;;;21.45;3.22;;;;;;;12.36;71.83;99100.50;4971163;28;20034;-89
2020/12/19 08:57:51;;;;;;;15.25;2.47;;;;;;;12.29;72.23;99100.22;4973992;28;20018;-89
2020/12/19 09:00:17;;;;;;;19.48;2.72;;;;;;;12.28;72.00;99098.59;4974056;28;20065;-89
2020/12/19 09:02:44;;;;;;;22.73;3.10;;;;;;;12.26;71.78;99104.97;4982197;28;20022;-87
2020/12/19 09:05:10;;;;;;;11.68;2.50;;;;;;;12.45;71.22;99102.22;4975015;28;20031;-89
2020/12/19 09:07:36;;;;;;;24.98;3.08;;;;;;;12.35;71.84;99108.53;4991948;28;20033;-89
2020/12/19 09:10:34;;;;;;;15.00;2.13;;;;;;;12.28;71.84;99119.66;4981480;28;20034;-88
2020/12/19 09:13:06;;;;;;;29.65;3.17;;;;;;;12.56;71.55;99119.63;4943068;28;20038;-88
2020/12/19 09:15:31;;;;;;;18.10;2.63;;;;;;;12.67;70.73;99124.66;4961017;28;20031;-88
2020/12/19 09:17:57;;;;;;;22.00;2.58;;;;;;;12.67;70.78;99129.91;4989479;28;20035;-88
2020/12/19 09:20:24;;;;;;;20.90;2.92;;;;;;;12.62;70.93;99128.75;4986825;28;20030;-88
2020/12/19 09:22:49;;;;;;;16.30;2.08;;;;;;;12.87;70.48;99127.16;4979076;28;20034;-88
2020/12/19 09:25:14;;;;;;;24.08;3.03;;;;;;;12.68;70.83;99123.69;4980164;28;20073;-88
2020/12/19 09:27:41;;;;;;;22.58;3.63;;;;;;;12.67;71.02;99126.47;4982752;28;20039;-88
2020/12/19 09:30:07;;;;;;;18.02;2.63;;;;;;;12.89;70.78;99141.00;4985828;28;20097;-88
2020/12/19 09:32:32;;;;;;;26.42;3.35;;;;;;;12.64;71.20;99135.50;4990589;28;20019;-88
2020/12/19 09:34:57;;;;;;;18.48;2.33;;;;;;;12.82;70.70;99132.06;4978330;28;20101;-88
2020/12/19 09:37:22;;;;;;;22.35;3.72;;;;;;;12.87;70.65;99125.38;4978437;28;20046;-89
2020/12/19 09:39:48;;;;;;;25.88;3.72;;;;;;;12.94;70.81;99125.59;4967022;28;20362;-89
2020/12/19 09:42:13;;;;;;;27.63;3.45;;;;;;;12.96;70.65;99120.16;4992499;28;20563;-91
2020/12/19 09:44:38;;;;;;;21.88;2.70;;;;;;;12.85;70.45;99126.47;4974287;28;20034;-91
2020/12/19 09:47:04;;;;;;;29.05;3.13;;;;;;;12.83;69.98;99128.44;4973381;28;20038;-90
2020/12/19 09:49:30;;;;;;;17.95;3.08;;;;;;;13.32;69.10;99115.72;4988996;28;20469;-90
2020/12/19 09:51:55;;;;;;;22.10;2.83;;;;;;;13.65;69.00;99126.50;4977487;28;20006;-90
2020/12/19 09:54:21;;;;;;;21.27;3.58;;;;;;;13.84;68.69;99123.66;4991710;28;20376;-90
2020/12/19 09:56:46;;;;;;;17.38;2.63;;;;;;;14.16;67.29;99114.22;4984743;28;20069;-92
2020/12/19 09:59:11;;;;;;;23.27;3.58;;;;;;;13.86;66.92;99120.81;4984331;28;20026;-89
2020/12/19 10:01:38;;;;;;;20.35;2.78;;;;;;;14.13;67.25;99103.97;4969274;28;20509;-90
2020/12/19 10:04:04;;;;;;;29.83;4.50;;;;;;;14.40;66.82;99110.84;4976058;28;20552;-90
2020/12/19 10:18:44;;;;;;;14.48;2.30;;;;;;;12.46;69.32;99145.16;5129134;27;20398;-89
2020/12/19 10:21:09;;;;;;;9.55;1.48;;;;;;;11.88;71.36;99147.03;5107321;28;20424;-88
2020/12/19 10:23:34;;;;;;;8.55;1.85;;;;;;;12.32;68.93;99130.69;5091824;28;20094;-88
2020/12/19 10:26:03;;;;;;;8.80;1.48;;;;;;;12.53;68.99;99124.34;5069088;28;20117;-88
2020/12/19 10:28:28;;;;;;;10.15;1.88;;;;;;;12.50;69.86;99128.94;5070344;28;20137;-89
2020/12/19 10:30:54;;;;;;;10.82;2.10;;;;;;;12.58;69.83;99140.50;5087292;28;20028;-88
2020/12/19 10:33:20;;;;;;;11.27;2.35;;;;;;;12.55;69.99;99146.09;5070033;28;20404;-86
2020/12/19 10:35:47;;;;;;;6.78;1.67;;;;;;;12.70;70.21;99131.44;5087748;28;20081;-88
2020/12/19 10:38:13;;;;;;;15.38;2.58;;;;;;;12.84;69.75;99122.19;5088030;28;20493;-91
2020/12/19 10:40:38;;;;;;;20.55;3.17;;;;;;;12.76;69.35;99137.94;5081664;28;20113;-92
2020/12/19 10:43:03;;;;;;;21.58;2.47;;;;;;;12.70;70.49;99129.63;5068896;28;20024;-91
2020/12/19 10:45:29;;;;;;;19.15;2.45;;;;;;;12.94;69.90;99141.41;5088965;28;20044;-88
2020/12/19 10:47:54;;;;;;;15.63;2.72;;;;;;;13.05;69.25;99142.97;5079629;28;20032;-87
2020/12/19 10:50:19;;;;;;;18.08;2.65;;;;;;;12.79;69.62;99153.41;5069339;28;20028;-88
2020/12/19 10:52:46;;;;;;;15.20;3.15;;;;;;;13.35;69.61;99149.69;5087139;28;20020;-88
2020/12/19 10:55:12;;;;;;;11.43;2.20;;;;;;;14.13;67.01;99164.69;5068916;28;20028;-88
2020/12/19 10:57:37;;;;;;;16.25;2.85;;;;;;;13.75;67.16;99164.16;5088031;28;20020;-89
2020/12/19 11:00:04;;;;;;;17.38;2.50;;;;;;;14.04;66.39;99169.09;5087607;28;20506;-88
2020/12/19 11:02:31;;;;;;;11.88;1.80;;;;;;;14.36;65.78;99174.69;5067845;28;20066;-87
2020/12/19 11:04:56;;;;;;;16.55;2.55;;;;;;;14.22;65.50;99181.41;5085933;28;20431;-87
2020/12/19 11:07:21;;;;;;;12.77;2.20;;;;;;;14.37;65.57;99178.97;5068216;28;20122;-87
2020/12/19 11:09:47;;;;;;;22.73;3.00;;;;;;;15.23;64.95;99183.19;5086019;28;20082;-86
2020/12/19 11:12:12;;;;;;;9.45;2.22;;;;;;;15.93;62.58;99179.22;5069246;28;20390;-85
2020/12/19 11:14:38;;;;;;;12.68;2.10;;;;;;;16.40;61.65;99186.34;5087370;28;20048;-86
2020/12/19 11:17:03;;;;;;;11.88;2.25;;;;;;;16.77;59.84;99180.38;5086674;28;20028;-86
2020/12/19 11:19:28;;;;;;;15.75;2.22;;;;;;;17.07;58.19;99195.66;5074523;28;20020;-92
2020/12/19 11:21:54;;;;;;;11.90;2.28;;;;;;;17.09;58.05;99196.31;5055713;28;20386;-89
2020/12/19 11:24:19;;;;;;;8.45;2.05;;;;;;;17.28;57.28;99189.69;5074929;28;20435;-93
2020/12/19 11:26:47;;;;;;;10.63;1.98;;;;;;;17.52;53.95;99208.09;5057410;28;20049;-90
2020/12/19 11:29:13;;;;;;;7.30;1.77;;;;;;;16.98;57.41;99205.47;5072261;28;20478;-92
2020/12/19 11:31:40;;;;;;;12.25;1.63;;;;;;;17.89;55.23;99202.97;5063904;28;20032;-88
2020/12/19 11:34:06;;;;;;;7.10;1.58;;;;;;;17.92;55.36;99194.66;5020523;28;20117;-88
2020/12/19 12:55:50;;;;;;;23.55;3.60;;;;;;;15.23;58.59;99199.88;5379929;23;20053;-95
2020/12/19 12:58:16;;;;;;;19.63;3.35;;;;;;;15.83;57.69;99206.69;4969222;28;20034;-96